Time;durP1;ratioP1;P1;durP2;ratioP2;P2;SDS_P1;SDS_P2;PMS_P1;PMS_P2;Temp;Humidity;BMP_temperature;BMP_pressure;BME280_temperature;BME280_humidity;BME280_pressure;Samples;Min_cycle;Max_cycle;Signal;HPM_P1;HPM_P2
2023/12/03 00:00:07;;;;;;;13.35;9.15;;;;;;;-0.51;60.03;101182.06;4111730;28;20071;-69
2023/12/03 00:02:12;;;;;;;15.63;9.40;;;;;;;-0.54;59.76;101184.38;4109245;28;20465;-70
2023/12/03 00:04:15;;;;;;;15.20;9.48;;;;;;;-0.60;60.38;101184.84;4113195;28;20543;-69
2023/12/03 00:06:18;;;;;;;14.75;8.93;;;;;;;-0.68;60.99;101185.09;4110754;28;20069;-69
2023/12/03 00:08:20;;;;;;;14.13;9.55;;;;;;;-0.72;59.98;101183.97;4114051;28;20105;-69
2023/12/03 00:10:25;;;;;;;13.90;9.13;;;;;;;-0.65;60.60;101181.06;4114311;28;20034;-69
2023/12/03 00:12:29;;;;;;;18.98;10.23;;;;;;;-0.73;60.79;101183.09;4108758;28;20125;-69
2023/12/03 00:14:33;;;;;;;16.30;10.32;;;;;;;-0.86;60.11;101185.53;4111163;28;20101;-69
2023/12/03 00:16:35;;;;;;;16.83;9.57;;;;;;;-0.94;60.50;101194.31;4110153;28;20038;-69
2023/12/03 00:18:39;;;;;;;13.45;9.00;;;;;;;-0.90;61.94;101193.75;4113639;28;20043;-68
2023/12/03 00:20:43;;;;;;;17.57;11.20;;;;;;;-0.90;61.69;101199.75;4111827;28;20038;-68
2023/12/03 00:22:46;;;;;;;16.60;9.93;;;;;;;-0.87;61.75;101188.88;4111071;28;20294;-69
2023/12/03 00:24:49;;;;;;;19.88;12.40;;;;;;;-0.83;62.01;101190.88;4111250;28;20050;-69
2023/12/03 00:26:54;;;;;;;14.98;10.18;;;;;;;-0.73;62.07;101192.41;4112734;28;20401;-69
2023/12/03 00:28:57;;;;;;;16.13;12.40;;;;;;;-0.65;61.71;101192.97;4111420;28;20039;-69
2023/12/03 00:31:00;;;;;;;17.05;13.35;;;;;;;-0.57;61.47;101194.38;4110203;28;20444;-69
2023/12/03 00:33:03;;;;;;;23.17;17.65;;;;;;;-0.53;60.67;101186.16;4110255;28;20122;-70
2023/12/03 00:35:06;;;;;;;17.25;12.18;;;;;;;-0.45;60.53;101190.16;4112666;28;20494;-69
2023/12/03 00:37:08;;;;;;;18.70;12.55;;;;;;;-0.50;61.26;101188.91;4112145;28;20035;-69
2023/12/03 00:39:11;;;;;;;20.15;13.63;;;;;;;-0.53;60.75;101188.72;4109847;28;20054;-69
2023/12/03 00:41:14;;;;;;;23.58;15.65;;;;;;;-0.58;60.85;101182.41;4113305;28;20042;-69
2023/12/03 00:43:19;;;;;;;20.98;14.63;;;;;;;-0.67;61.13;101184.28;4112512;28;20541;-69
2023/12/03 00:45:22;;;;;;;25.00;17.65;;;;;;;-0.68;61.70;101188.50;4111369;28;20464;-69
2023/12/03 00:47:25;;;;;;;15.88;11.27;;;;;;;-0.71;61.05;101191.72;4112051;28;20035;-69
2023/12/03 00:49:28;;;;;;;17.55;11.07;;;;;;;-0.69;61.28;101198.63;4109051;28;20075;-68
2023/12/03 00:51:31;;;;;;;16.05;10.98;;;;;;;-0.72;61.09;101199.28;4110330;28;20031;-68
2023/12/03 00:53:34;;;;;;;18.67;11.98;;;;;;;-0.74;61.63;101196.63;4108410;28;20042;-68
2023/12/03 00:55:37;;;;;;;18.67;11.75;;;;;;;-0.69;61.25;101203.72;4111554;28;20046;-69
2023/12/03 00:57:40;;;;;;;18.42;11.80;;;;;;;-0.74;61.14;101204.28;4112746;28;20130;-68
2023/12/03 00:59:43;;;;;;;20.60;12.75;;;;;;;-0.80;61.57;101216.63;4109603;28;20082;-68
2023/12/03 01:01:46;;;;;;;15.95;11.52;;;;;;;-0.81;61.85;101208.84;4105324;28;20586;-69
2023/12/03 01:03:49;;;;;;;17.95;12.60;;;;;;;-0.83;62.39;101211.28;4114054;28;20049;-69
2023/12/03 01:05:52;;;;;;;17.60;11.20;;;;;;;-0.77;62.87;101205.75;4108722;28;20042;-69
2023/12/03 01:07:55;;;;;;;18.75;12.60;;;;;;;-0.81;62.14;101211.41;4112252;28;20093;-69
2023/12/03 01:09:57;;;;;;;19.70;13.10;;;;;;;-0.88;62.84;101217.72;4113010;28;20050;-69
2023/12/03 01:12:01;;;;;;;21.52;13.13;;;;;;;-0.96;62.53;101214.63;4108977;28;20057;-69
2023/12/03 01:14:04;;;;;;;22.92;13.98;;;;;;;-1.13;62.35;101215.94;4112907;28;20086;-70
2023/12/03 01:16:16;;;;;;;20.35;12.98;;;;;;;-1.19;62.87;101223.13;4126284;28;20049;-68
2023/12/03 01:18:19;;;;;;;23.17;14.30;;;;;;;-1.25;62.17;101223.56;4102946;28;20525;-68
2023/12/03 01:20:22;;;;;;;20.13;12.50;;;;;;;-1.08;62.50;101219.72;4110154;28;20059;-69
2023/12/03 01:22:25;;;;;;;18.92;12.98;;;;;;;-1.04;62.93;101222.50;4101140;28;20472;-69
2023/12/03 01:24:28;;;;;;;21.35;13.45;;;;;;;-1.19;62.33;101235.00;4108945;28;20476;-69
2023/12/03 01:26:31;;;;;;;19.27;13.43;;;;;;;-1.17;62.83;101233.44;4111994;28;20130;-69
2023/12/03 01:28:34;;;;;;;24.75;14.85;;;;;;;-1.19;63.71;101235.88;4106609;28;20130;-69
2023/12/03 01:30:37;;;;;;;19.70;13.77;;;;;;;-1.15;63.51;101243.00;4103161;28;20109;-69
2023/12/03 01:32:41;;;;;;;21.35;14.52;;;;;;;-1.29;62.65;101234.31;4110130;28;20520;-70
2023/12/03 01:34:44;;;;;;;21.88;13.75;;;;;;;-1.25;62.77;101241.41;4111124;28;20401;-69
2023/12/03 01:36:47;;;;;;;21.00;14.75;;;;;;;-1.10;63.44;101231.47;4109181;28;20042;-69
2023/12/03 01:38:49;;;;;;;20.48;14.07;;;;;;;-1.04;62.24;101241.22;4106920;28;20130;-69
2023/12/03 01:40:53;;;;;;;22.60;14.43;;;;;;;-1.12;62.74;101238.13;4111869;28;20081;-70
2023/12/03 01:42:56;;;;;;;22.05;14.52;;;;;;;-1.20;62.26;101245.97;4113408;28;20047;-69
2023/12/03 01:44:59;;;;;;;21.75;14.95;;;;;;;-1.34;62.46;101248.41;4111089;28;20038;-69
2023/12/03 01:47:03;;;;;;;20.92;14.25;;;;;;;-1.37;63.54;101253.28;4107379;28;20043;-69
2023/12/03 01:49:07;;;;;;;21.05;14.50;;;;;;;-1.32;63.81;101253.63;4110723;28;20510;-69
2023/12/03 01:51:11;;;;;;;23.70;14.63;;;;;;;-1.39;62.91;101248.81;4112980;28;20060;-69
2023/12/03 01:53:16;;;;;;;22.08;15.30;;;;;;;-1.27;63.14;101253.19;4106448;28;20050;-69
2023/12/03 01:55:19;;;;;;;24.40;15.95;;;;;;;-1.19;63.01;101256.31;4109754;28;20090;-69
2023/12/03 01:57:23;;;;;;;24.95;15.35;;;;;;;-1.21;63.77;101254.41;4107806;28;20046;-69
2023/12/03 01:59:26;;;;;;;20.98;14.38;;;;;;;-1.10;62.93;101251.88;4114084;28;20090;-69
2023/12/03 02:01:29;;;;;;;23.27;14.95;;;;;;;-1.13;63.61;101254.19;4110554;28;20476;-69
2023/12/03 02:03:32;;;;;;;22.27;14.15;;;;;;;-1.10;63.17;101263.75;4111081;28;20076;-69
2023/12/03 02:05:37;;;;;;;19.60;13.98;;;;;;;-0.98;62.93;101262.13;4111876;28;20098;-69
2023/12/03 02:07:40;;;;;;;22.08;14.50;;;;;;;-1.09;63.81;101257.88;4111321;28;20449;-69
2023/12/03 02:09:43;;;;;;;19.70;13.82;;;;;;;-1.07;62.75;101264.88;4106163;28;20488;-70
2023/12/03 02:11:46;;;;;;;54.28;23.73;;;;;;;-0.93;62.61;101250.56;4105586;28;20038;-69
2023/12/03 02:13:50;;;;;;;32.03;17.55;;;;;;;-1.03;63.71;101267.66;4111552;28;20405;-69
2023/12/03 02:15:54;;;;;;;26.67;16.17;;;;;;;-1.21;63.56;101265.53;4110312;28;20053;-70
2023/12/03 02:17:57;;;;;;;26.02;16.88;;;;;;;-1.15;64.07;101268.50;4110439;28;20121;-70
2023/12/03 02:20:00;;;;;;;21.08;14.02;;;;;;;-1.11;63.53;101267.97;4110451;28;20035;-70
2023/12/03 02:22:04;;;;;;;23.02;15.45;;;;;;;-1.09;63.43;101279.16;4112209;28;20038;-70
2023/12/03 02:24:09;;;;;;;20.40;14.68;;;;;;;-1.09;63.81;101273.19;4109491;28;20065;-70
2023/12/03 02:26:12;;;;;;;23.50;13.90;;;;;;;-1.08;63.41;101282.59;4107543;28;20117;-69
2023/12/03 02:28:13;;;;;;;23.52;14.70;;;;;;;-1.19;63.91;101284.38;4104414;28;20035;-69
2023/12/03 02:30:17;;;;;;;21.02;13.65;;;;;;;-1.17;64.58;101285.34;4105235;28;20061;-69
2023/12/03 02:32:19;;;;;;;23.95;15.57;;;;;;;-1.19;63.71;101286.03;4108823;28;20046;-69
2023/12/03 02:34:22;;;;;;;23.58;15.10;;;;;;;-1.16;64.56;101276.06;4106315;28;20043;-69
2023/12/03 02:36:25;;;;;;;26.52;16.33;;;;;;;-1.16;64.79;101279.50;4108961;28;20094;-69
2023/12/03 02:38:28;;;;;;;21.48;13.80;;;;;;;-1.08;64.12;101280.97;4108860;28;20386;-69
2023/12/03 02:40:33;;;;;;;23.42;14.45;;;;;;;-0.99;63.52;101282.38;4111521;28;20122;-69
2023/12/03 02:42:35;;;;;;;;;;;;;;;-1.16;64.61;101278.59;4114589;28;20113;-68
2023/12/03 02:44:38;;;;;;;20.20;13.43;;;;;;;-1.16;64.25;101287.13;4114161;28;19921;-68
2023/12/03 02:46:41;;;;;;;21.50;14.68;;;;;;;-1.14;64.98;101285.59;4113974;28;20585;-68
2023/12/03 02:48:43;;;;;;;18.40;12.77;;;;;;;-1.08;64.12;101291.16;4112993;28;20031;-68
2023/12/03 02:50:46;;;;;;;23.35;15.27;;;;;;;-1.21;64.86;101285.94;4111973;28;20130;-68
2023/12/03 02:52:48;;;;;;;23.15;15.88;;;;;;;-1.21;64.25;101285.00;4110223;28;20053;-67
2023/12/03 02:54:51;;;;;;;23.80;15.52;;;;;;;-1.23;64.63;101277.25;4108332;28;20082;-68
2023/12/03 02:56:58;;;;;;;25.60;16.75;;;;;;;-1.22;64.74;101279.03;4110841;28;20043;-68
2023/12/03 02:59:01;;;;;;;22.48;15.23;;;;;;;-1.29;63.94;101285.31;4112357;28;20378;-68
2023/12/03 03:01:05;;;;;;;25.70;16.25;;;;;;;-1.33;64.17;101280.78;4104556;28;20049;-69
2023/12/03 03:03:07;;;;;;;24.63;16.00;;;;;;;-1.54;64.56;101286.81;4117211;28;20429;-68
2023/12/03 03:05:10;;;;;;;24.38;15.50;;;;;;;-1.68;64.78;101283.19;4129169;28;20034;-68
2023/12/03 03:07:12;;;;;;;25.67;16.88;;;;;;;-1.63;65.35;101289.56;4113761;28;20070;-69
2023/12/03 03:09:15;;;;;;;24.02;15.35;;;;;;;-1.56;65.46;101286.69;4112899;28;20037;-68
2023/12/03 03:11:17;;;;;;;21.02;14.15;;;;;;;-1.47;65.45;101291.63;4115277;28;20097;-68
2023/12/03 03:13:22;;;;;;;24.38;16.00;;;;;;;-1.47;65.21;101284.84;4113646;28;20122;-68
2023/12/03 03:15:24;;;;;;;25.40;16.55;;;;;;;-1.43;65.13;101280.84;4112803;28;20043;-68
2023/12/03 03:17:27;;;;;;;23.75;16.23;;;;;;;-1.53;66.15;101279.28;4113363;28;20031;-68
2023/12/03 03:19:30;;;;;;;23.83;15.90;;;;;;;-1.51;65.23;101285.38;4111141;28;20062;-68
2023/12/03 03:21:38;;;;;;;22.73;16.08;;;;;;;-1.45;66.02;101288.38;4112850;28;20129;-68
2023/12/03 03:23:41;;;;;;;23.60;15.80;;;;;;;-1.34;65.85;101285.75;4111237;28;20094;-69
2023/12/03 03:25:44;;;;;;;21.83;14.85;;;;;;;-1.41;64.46;101287.84;4113329;28;20062;-68
2023/12/03 03:27:46;;;;;;;25.48;15.07;;;;;;;-1.45;65.94;101287.50;4094804;28;20494;-68
2023/12/03 03:29:51;;;;;;;24.08;16.17;;;;;;;-1.36;65.18;101287.31;4112479;28;20066;-69
2023/12/03 03:31:54;;;;;;;21.60;14.93;;;;;;;-1.36;65.94;101284.75;4111600;28;20142;-69
2023/12/03 03:33:57;;;;;;;26.20;16.52;;;;;;;-1.35;64.62;101286.53;4115409;28;20062;-69
2023/12/03 03:36:00;;;;;;;24.00;15.55;;;;;;;-1.35;65.59;101291.66;4108349;28;20473;-69
2023/12/03 03:38:03;;;;;;;24.55;16.08;;;;;;;-1.44;64.71;101295.28;4106678;28;20098;-68
2023/12/03 03:40:07;;;;;;;25.63;17.35;;;;;;;-1.31;65.41;101291.13;4113058;28;20066;-68
2023/12/03 03:42:10;;;;;;;26.30;16.15;;;;;;;-1.41;65.34;101289.53;4114137;28;20062;-69
2023/12/03 03:44:13;;;;;;;27.10;17.45;;;;;;;-1.33;65.74;101295.19;4111509;28;20071;-68
2023/12/03 03:46:17;;;;;;;24.25;15.63;;;;;;;-1.41;65.82;101300.59;4111554;28;20043;-69
2023/12/03 03:48:21;;;;;;;;;;;;;;;-1.58;66.36;101300.97;4114170;28;20066;-68
2023/12/03 03:50:24;;;;;;;24.65;15.50;;;;;;;-1.52;65.11;101305.66;4110952;28;19966;-68
2023/12/03 03:52:27;;;;;;;25.88;17.20;;;;;;;-1.48;65.49;101308.56;4129081;28;20628;-68
2023/12/03 03:54:30;;;;;;;23.63;15.40;;;;;;;-1.43;66.44;101314.00;4110759;28;20045;-68
2023/12/03 03:56:33;;;;;;;25.55;16.50;;;;;;;-1.39;66.38;101317.69;4107633;28;20106;-68
2023/12/03 03:58:37;;;;;;;26.83;16.85;;;;;;;-1.39;65.85;101318.56;4113983;28;20034;-69
2023/12/03 04:00:40;;;;;;;25.65;16.30;;;;;;;-1.47;65.93;101315.44;4106292;28;20414;-68
2023/12/03 04:02:44;;;;;;;27.38;17.33;;;;;;;-1.46;66.13;101319.78;4109366;28;20405;-68
2023/12/03 04:04:47;;;;;;;27.25;17.08;;;;;;;-1.49;65.76;101321.19;4109821;28;20043;-70
2023/12/03 04:06:50;;;;;;;25.75;15.88;;;;;;;-1.49;66.49;101322.09;4105392;28;20049;-69
2023/12/03 04:08:54;;;;;;;27.85;17.88;;;;;;;-1.52;65.13;101321.88;4109041;28;20457;-68
2023/12/03 04:10:55;;;;;;;28.75;18.63;;;;;;;-1.53;65.54;101321.72;4108646;28;20126;-69
2023/12/03 04:12:58;;;;;;;26.40;17.63;;;;;;;-1.57;65.28;101325.72;4097431;28;20075;-70
2023/12/03 04:15:01;;;;;;;28.50;17.42;;;;;;;-1.56;64.88;101324.94;4111452;28;20065;-69
2023/12/03 04:17:04;;;;;;;32.45;19.58;;;;;;;-1.71;65.70;101328.84;4108662;28;20741;-69
2023/12/03 04:19:08;;;;;;;28.17;17.33;;;;;;;-1.83;65.33;101329.66;4108787;28;20070;-69
2023/12/03 04:21:15;;;;;;;27.60;16.65;;;;;;;-1.94;65.94;101330.50;4109972;28;20413;-69
2023/12/03 04:23:18;;;;;;;30.42;18.48;;;;;;;-1.95;67.16;101328.72;4106660;28;20061;-70
2023/12/03 04:25:22;;;;;;;26.17;17.13;;;;;;;-1.79;66.55;101331.69;4111213;28;20050;-70
2023/12/03 04:27:26;;;;;;;27.27;17.57;;;;;;;-1.73;65.42;101336.38;4108470;28;20130;-69
2023/12/03 04:29:29;;;;;;;24.65;15.60;;;;;;;-1.83;66.22;101337.31;4111630;28;20302;-70
2023/12/03 04:31:32;;;;;;;27.27;16.65;;;;;;;-1.84;65.90;101339.75;4112484;28;20382;-70
2023/12/03 04:33:34;;;;;;;27.58;16.58;;;;;;;-1.91;65.31;101338.41;4113193;28;20050;-69
2023/12/03 04:35:38;;;;;;;25.60;15.85;;;;;;;-1.87;65.65;101342.06;4112311;28;20047;-68
2023/12/03 04:37:41;;;;;;;27.95;17.85;;;;;;;-1.82;65.64;101350.97;4113300;28;20043;-68
2023/12/03 04:39:43;;;;;;;25.70;17.00;;;;;;;-1.84;66.18;101348.31;4111904;28;20500;-68
2023/12/03 04:41:46;;;;;;;30.80;18.75;;;;;;;-1.81;65.69;101351.09;4113863;28;20042;-68
2023/12/03 04:43:49;;;;;;;27.77;16.65;;;;;;;-1.77;65.90;101355.66;4113711;28;20072;-68
2023/12/03 04:45:51;;;;;;;27.35;16.85;;;;;;;-1.71;66.42;101356.88;4109677;28;20051;-68
2023/12/03 04:47:54;;;;;;;27.52;17.25;;;;;;;-1.62;66.09;101355.97;4108673;28;20042;-69
2023/12/03 04:49:57;;;;;;;27.30;17.23;;;;;;;-1.59;65.76;101361.28;4113704;28;20430;-69
2023/12/03 04:52:01;;;;;;;25.83;17.20;;;;;;;-1.58;64.77;101367.25;4108650;28;20054;-69
2023/12/03 04:54:05;;;;;;;27.92;17.52;;;;;;;-1.71;65.10;101364.53;4106869;28;20035;-68
2023/12/03 04:56:09;;;;;;;26.02;16.40;;;;;;;-1.77;64.77;101370.94;4110029;28;20035;-68
2023/12/03 04:58:12;;;;;;;27.23;17.38;;;;;;;-1.76;65.15;101372.72;4111951;28;20053;-69
2023/12/03 05:00:15;;;;;;;32.92;18.55;;;;;;;-1.70;65.65;101368.88;4111142;28;20387;-69
2023/12/03 05:02:18;;;;;;;28.55;18.55;;;;;;;-1.79;65.09;101372.47;4110640;28;20494;-70
2023/12/03 05:04:23;;;;;;;26.25;17.38;;;;;;;-1.76;64.79;101364.19;4110540;28;20749;-69
2023/12/03 05:06:26;;;;;;;28.63;17.80;;;;;;;-1.74;65.30;101366.84;4111803;28;20061;-69
2023/12/03 05:08:31;;;;;;;26.10;16.95;;;;;;;-1.63;65.01;101371.13;4109449;28;20438;-69
2023/12/03 05:10:34;;;;;;;28.95;18.02;;;;;;;-1.73;65.67;101373.75;4109935;28;20056;-69
2023/12/03 05:12:37;;;;;;;24.73;16.38;;;;;;;-1.80;65.32;101375.78;4109312;28;20097;-69
2023/12/03 05:14:40;;;;;;;30.55;18.33;;;;;;;-1.80;65.65;101377.44;4110656;28;20039;-69
2023/12/03 05:16:43;;;;;;;28.63;16.98;;;;;;;-1.81;65.70;101378.22;4112363;28;20066;-69
2023/12/03 05:18:45;;;;;;;27.15;16.65;;;;;;;-1.73;65.74;101377.16;4111660;28;20126;-69
2023/12/03 05:20:49;;;;;;;27.90;16.88;;;;;;;-1.68;65.67;101377.53;4111762;28;20034;-69
2023/12/03 05:22:53;;;;;;;27.30;17.13;;;;;;;-1.67;65.18;101379.31;4109199;28;20073;-69
2023/12/03 05:24:57;;;;;;;28.77;17.00;;;;;;;-1.66;65.97;101379.44;4106612;28;20413;-70
2023/12/03 05:26:59;;;;;;;27.23;16.60;;;;;;;-1.68;65.11;101382.63;4112050;28;20528;-69
2023/12/03 05:29:02;;;;;;;24.15;15.73;;;;;;;-1.70;65.27;101386.72;4111055;28;20051;-69
2023/12/03 05:31:06;;;;;;;27.30;17.42;;;;;;;-1.69;65.52;101383.41;4104972;28;20131;-70
2023/12/03 05:33:09;;;;;;;25.58;17.27;;;;;;;-1.74;65.55;101384.69;4113592;28;20043;-70
2023/12/03 05:35:12;;;;;;;29.02;18.70;;;;;;;-1.72;65.83;101385.69;4104331;28;20035;-70
2023/12/03 05:37:15;;;;;;;25.85;17.08;;;;;;;-1.69;65.87;101391.06;4111276;28;20042;-70
2023/12/03 05:39:21;;;;;;;26.48;16.63;;;;;;;-1.64;65.43;101394.84;4112032;28;20069;-70
2023/12/03 05:41:25;;;;;;;26.95;17.58;;;;;;;-1.65;66.13;101391.41;4111689;28;20082;-70
2023/12/03 05:43:28;;;;;;;29.05;18.83;;;;;;;-1.70;66.07;101392.69;4110666;28;20468;-70
2023/12/03 05:45:31;;;;;;;29.65;18.30;;;;;;;-1.70;65.26;101394.38;4112138;28;21418;-69
2023/12/03 05:47:34;;;;;;;27.45;18.30;;;;;;;-1.72;65.50;101388.25;4111097;28;20077;-69
2023/12/03 05:49:39;;;;;;;25.27;16.52;;;;;;;-1.72;65.18;101388.25;4124558;28;20042;-69
2023/12/03 05:51:44;;;;;;;30.05;19.15;;;;;;;-1.72;66.02;101398.44;4111690;28;20112;-69
2023/12/03 05:53:46;;;;;;;;;;;;;;;-1.78;65.18;101397.19;4105345;28;20497;-69
2023/12/03 05:55:49;;;;;;;27.33;17.52;;;;;;;-1.72;65.59;101403.53;4104179;28;19938;-69
2023/12/03 05:57:54;;;;;;;27.88;18.05;;;;;;;-1.78;66.21;101402.31;4104349;28;20043;-69
2023/12/03 05:59:57;;;;;;;28.15;19.27;;;;;;;-1.80;65.84;101408.91;4111522;28;20045;-69
2023/12/03 06:01:59;;;;;;;27.23;17.70;;;;;;;-1.82;65.97;101404.50;4126619;28;20595;-69
2023/12/03 06:04:06;;;;;;;27.55;16.95;;;;;;;-1.80;65.42;101401.25;4110643;28;20516;-69
2023/12/03 06:06:09;;;;;;;29.23;17.73;;;;;;;-1.87;66.34;101406.69;4108321;28;20074;-69
2023/12/03 06:08:12;;;;;;;26.58;17.13;;;;;;;-1.99;65.86;101401.47;4109383;28;20039;-69
2023/12/03 06:10:15;;;;;;;29.35;18.10;;;;;;;-1.94;65.92;101406.97;4111730;28;20501;-70
2023/12/03 06:12:18;;;;;;;30.33;18.83;;;;;;;-1.90;66.04;101400.44;4112106;28;20058;-69
2023/12/03 06:14:23;;;;;;;29.73;18.40;;;;;;;-1.82;66.05;101399.38;4109470;28;20034;-69
2023/12/03 06:16:26;;;;;;;26.23;18.08;;;;;;;-1.84;65.44;101400.91;4112376;28;20047;-70
2023/12/03 06:18:29;;;;;;;27.98;18.05;;;;;;;-1.81;66.23;101401.16;4110964;28;20485;-70
2023/12/03 06:20:32;;;;;;;29.58;17.98;;;;;;;-1.59;65.55;101391.00;4114221;28;20031;-69
2023/12/03 06:22:36;;;;;;;28.60;18.30;;;;;;;-1.82;65.34;101397.72;4113392;28;20121;-69
2023/12/03 06:24:39;;;;;;;30.55;18.27;;;;;;;-1.88;65.79;101394.69;4107757;28;20414;-70
2023/12/03 06:26:42;;;;;;;29.00;17.35;;;;;;;-1.88;66.36;101396.34;4110895;28;20047;-69
2023/12/03 06:28:45;;;;;;;29.60;18.30;;;;;;;-1.84;66.09;101394.19;4110620;28;20062;-70
2023/12/03 06:30:49;;;;;;;27.58;17.63;;;;;;;-1.89;66.74;101402.22;4113657;28;20129;-68
2023/12/03 06:32:52;;;;;;;26.17;17.40;;;;;;;-1.90;65.62;101403.84;4109660;28;20031;-69
2023/12/03 06:34:54;;;;;;;26.25;17.63;;;;;;;-1.88;66.07;101399.78;4113523;28;20134;-70
2023/12/03 06:36:58;;;;;;;31.25;19.38;;;;;;;-1.88;66.05;101406.53;4114315;28;20038;-70
2023/12/03 06:39:01;;;;;;;28.75;17.92;;;;;;;-1.88;65.86;101402.34;4105462;28;20143;-70
2023/12/03 06:41:05;;;;;;;29.83;19.33;;;;;;;-1.89;66.00;101410.75;4113451;28;20482;-69
2023/12/03 06:43:08;;;;;;;30.80;19.38;;;;;;;-1.91;66.63;101407.19;4114800;28;20043;-70
2023/12/03 06:45:11;;;;;;;32.72;19.38;;;;;;;-1.87;65.61;101414.31;4108750;28;20511;-69
2023/12/03 06:47:15;;;;;;;31.73;19.83;;;;;;;-1.71;65.26;101412.97;4110662;28;20046;-69
2023/12/03 06:49:18;;;;;;;29.92;18.50;;;;;;;-1.75;65.79;101409.31;4111988;28;20114;-69
2023/12/03 06:51:20;;;;;;;29.85;18.38;;;;;;;-1.66;64.98;101414.25;4114526;28;20045;-69
2023/12/03 06:53:23;;;;;;;31.15;19.75;;;;;;;-1.86;65.51;101410.97;4105314;28;20039;-69
2023/12/03 06:55:26;;;;;;;29.92;18.45;;;;;;;-1.88;65.63;101417.63;4108745;28;20086;-69
2023/12/03 06:57:29;;;;;;;27.45;18.75;;;;;;;-1.90;65.59;101415.72;4111929;28;20097;-68
2023/12/03 06:59:32;;;;;;;29.48;18.25;;;;;;;-1.94;66.89;101409.50;4112115;28;20457;-69
2023/12/03 07:01:35;;;;;;;30.45;19.27;;;;;;;-1.92;66.55;101427.47;4109179;28;20039;-69
2023/12/03 07:03:41;;;;;;;29.85;18.05;;;;;;;-1.89;66.61;101414.97;4110808;28;20085;-68
2023/12/03 07:05:44;;;;;;;35.28;18.10;;;;;;;-1.83;66.67;101415.44;4112380;28;20034;-68
2023/12/03 07:07:50;;;;;;;29.55;18.50;;;;;;;-1.86;66.33;101407.56;4110001;28;20077;-69
2023/12/03 07:09:52;;;;;;;31.95;18.65;;;;;;;-1.80;66.33;101420.78;4106615;28;20051;-70
2023/12/03 07:11:54;;;;;;;30.35;18.98;;;;;;;-1.86;66.75;101426.28;4115784;28;20085;-68
2023/12/03 07:13:57;;;;;;;30.58;17.92;;;;;;;-1.89;66.79;101431.13;4112505;28;20077;-68
2023/12/03 07:16:00;;;;;;;31.45;19.25;;;;;;;-1.87;66.89;101428.72;4109075;28;20047;-70
2023/12/03 07:18:03;;;;;;;29.50;17.77;;;;;;;-1.85;67.36;101430.63;4110546;28;20054;-69
2023/12/03 07:20:10;;;;;;;29.02;17.75;;;;;;;-1.83;67.07;101434.16;4111791;28;20043;-68
2023/12/03 07:22:13;;;;;;;27.88;18.20;;;;;;;-1.80;66.74;101439.50;4112975;28;20046;-68
2023/12/03 07:24:17;;;;;;;32.67;18.67;;;;;;;-1.77;66.70;101438.84;4111250;28;20035;-68
2023/12/03 07:26:20;;;;;;;27.15;17.15;;;;;;;-1.77;66.09;101444.88;4111716;28;20146;-68
2023/12/03 07:28:22;;;;;;;31.65;18.95;;;;;;;-1.85;66.41;101448.47;4107605;28;20042;-68
2023/12/03 07:30:25;;;;;;;32.25;19.15;;;;;;;-1.83;67.50;101448.56;4110435;28;20178;-68
2023/12/03 07:32:28;;;;;;;31.70;20.55;;;;;;;-1.84;66.91;101452.78;4113848;28;20027;-68
2023/12/03 07:34:31;;;;;;;33.45;20.00;;;;;;;-1.76;66.82;101444.09;4113015;28;20074;-68
2023/12/03 07:36:35;;;;;;;35.80;22.02;;;;;;;-1.84;66.54;101457.91;4111238;28;20141;-68
2023/12/03 07:38:39;;;;;;;35.50;19.80;;;;;;;-1.83;67.73;101457.09;4111729;28;20058;-69
2023/12/03 07:40:42;;;;;;;24.48;14.10;;;;;;;-1.55;71.03;101459.28;4112162;28;20043;-61
2023/12/03 07:42:45;;;;;;;35.92;21.45;;;;;;;-0.47;74.56;101454.78;4091809;28;20411;-62
2023/12/03 07:44:48;;;;;;;36.08;22.02;;;;;;;-0.19;71.81;101451.69;4128502;28;20110;-71
2023/12/03 07:46:53;;;;;;;34.00;21.15;;;;;;;-0.41;67.55;101457.81;4110883;28;20063;-71
2023/12/03 07:48:56;;;;;;;33.33;20.25;;;;;;;-0.71;67.59;101462.38;4111372;28;20133;-70
2023/12/03 07:50:59;;;;;;;36.08;21.50;;;;;;;-0.92;67.34;101461.66;4115206;28;20039;-71
2023/12/03 07:53:04;;;;;;;31.92;19.73;;;;;;;-1.09;66.90;101465.44;4114642;28;20065;-71
2023/12/03 07:55:08;;;;;;;31.67;20.77;;;;;;;-1.26;67.81;101474.31;4114283;28;21741;-71
2023/12/03 07:57:11;;;;;;;33.17;20.15;;;;;;;-1.25;67.52;101465.03;4111448;28;20034;-71
2023/12/03 07:59:14;;;;;;;30.05;19.38;;;;;;;-1.30;67.19;101471.44;4106819;28;20043;-71
2023/12/03 08:01:17;;;;;;;32.40;19.63;;;;;;;-1.23;67.16;101472.03;4111917;28;20042;-71
2023/12/03 08:03:20;;;;;;;33.95;19.27;;;;;;;-1.21;67.30;101471.25;4108214;28;20078;-71
2023/12/03 08:05:23;;;;;;;33.50;20.55;;;;;;;-1.33;67.63;101476.28;4111138;28;20105;-70
2023/12/03 08:07:26;;;;;;;35.35;20.85;;;;;;;-1.38;66.57;101472.50;4113885;28;20475;-70
2023/12/03 08:09:30;;;;;;;30.45;17.05;;;;;;;-1.34;66.95;101480.50;4104677;28;20121;-69
2023/12/03 08:11:33;;;;;;;33.40;20.83;;;;;;;-1.39;67.78;101476.69;4105311;28;20139;-70
2023/12/03 08:13:36;;;;;;;32.40;19.65;;;;;;;-1.43;67.66;101485.78;4111290;28;20494;-69
2023/12/03 08:15:39;;;;;;;30.77;19.08;;;;;;;-1.53;66.95;101498.56;4108733;28;20037;-70
2023/12/03 08:17:42;;;;;;;31.05;19.73;;;;;;;-1.64;67.20;101507.00;4110299;28;20042;-71
2023/12/03 08:19:45;;;;;;;36.47;21.17;;;;;;;-1.58;67.71;101502.41;4107524;28;20039;-71
2023/12/03 08:21:48;;;;;;;27.95;17.38;;;;;;;-1.52;67.15;101500.38;4109362;28;20039;-70
2023/12/03 08:23:51;;;;;;;32.80;19.35;;;;;;;-1.43;67.62;101495.06;4110823;28;20158;-70
2023/12/03 08:25:55;;;;;;;26.73;17.38;;;;;;;-1.41;67.49;101489.31;4109760;28;20141;-70
2023/12/03 08:27:58;;;;;;;32.47;19.38;;;;;;;-1.41;67.64;101486.78;4107533;28;20137;-72
2023/12/03 08:30:00;;;;;;;29.70;17.90;;;;;;;-1.43;67.05;101492.53;4115105;28;20420;-71
2023/12/03 08:32:04;;;;;;;27.98;17.65;;;;;;;-1.29;66.44;101489.41;4113300;28;20143;-71
2023/12/03 08:34:07;;;;;;;31.92;19.20;;;;;;;-1.22;67.04;101490.78;4114752;28;20066;-71
2023/12/03 08:36:17;;;;;;;31.00;19.13;;;;;;;-1.17;65.83;101473.28;4116214;28;20098;-71
2023/12/03 08:38:20;;;;;;;31.00;20.00;;;;;;;-1.37;65.74;101479.38;4112375;28;20066;-69
2023/12/03 08:40:23;;;;;;;28.67;17.95;;;;;;;-1.36;66.15;101479.47;4109937;28;20049;-70
2023/12/03 08:42:27;;;;;;;28.38;18.00;;;;;;;-1.50;65.96;101482.63;4107053;28;20125;-70
2023/12/03 08:44:30;;;;;;;28.27;17.67;;;;;;;-1.28;66.07;101475.00;4113986;28;20395;-71
2023/12/03 08:46:33;;;;;;;31.95;18.25;;;;;;;-1.23;65.10;101473.69;4113789;28;20070;-67
2023/12/03 08:48:35;;;;;;;30.35;18.58;;;;;;;-1.15;65.84;101477.75;4109655;28;20031;-64
2023/12/03 08:50:38;;;;;;;28.83;17.20;;;;;;;-1.21;64.99;101489.13;4105509;28;20042;-66
2023/12/03 08:52:41;;;;;;;29.20;17.90;;;;;;;-1.29;65.71;101483.41;4113931;28;20043;-66
2023/12/03 08:54:44;;;;;;;30.33;17.95;;;;;;;-1.41;65.66;101486.78;4111428;28;20045;-65
2023/12/03 08:56:46;;;;;;;31.55;18.65;;;;;;;-1.28;65.08;101490.31;4111813;28;20038;-65
2023/12/03 08:58:53;;;;;;;28.67;18.02;;;;;;;-1.22;65.86;101488.22;4111197;28;20082;-66
2023/12/03 09:00:56;;;;;;;;;;;;;;;-1.16;64.71;101491.25;4105468;28;20046;-68
2023/12/03 09:02:59;;;;;;;28.60;16.85;;;;;;;-1.11;64.98;101492.53;4110553;28;19931;-69
2023/12/03 09:05:02;;;;;;;26.65;17.25;;;;;;;-1.01;64.60;101485.56;4109829;28;20050;-69
2023/12/03 09:07:05;;;;;;;30.90;19.13;;;;;;;-0.90;64.71;101492.41;4111797;28;20046;-71
2023/12/03 09:09:08;;;;;;;28.63;17.50;;;;;;;-0.89;65.05;101491.63;4110175;28;20118;-68
2023/12/03 09:11:11;;;;;;;29.83;18.70;;;;;;;-0.89;65.35;101496.75;4112636;28;20053;-67
2023/12/03 09:13:14;;;;;;;28.50;17.30;;;;;;;-0.81;64.96;101495.66;4109307;28;20035;-63
2023/12/03 09:15:19;;;;;;;25.15;15.35;;;;;;;-0.85;64.40;101493.63;4109869;28;20070;-68
2023/12/03 09:17:22;;;;;;;28.00;18.08;;;;;;;-0.98;64.45;101496.00;4106031;28;20138;-66
2023/12/03 09:19:25;;;;;;;28.95;17.85;;;;;;;-0.90;65.16;101489.84;4107119;28;20488;-66
2023/12/03 09:21:31;;;;;;;32.60;18.38;;;;;;;-0.89;64.34;101492.50;4110900;28;20505;-66